createdAt,value
2022-08-27T00:00:52.954Z,100049.59
2022-08-27T00:03:55.727Z,100044.91
2022-08-27T00:06:57.381Z,100040.81
2022-08-27T00:09:59.743Z,100043.19
2022-08-27T00:13:01.743Z,100045.75
2022-08-27T00:16:06.717Z,100039.50
2022-08-27T00:19:08.457Z,100041.91
2022-08-27T00:22:10.720Z,100048.03
2022-08-27T00:25:13.392Z,100053.31
2022-08-27T00:28:15.240Z,100047.06
2022-08-27T00:31:17.528Z,100048.56
2022-08-27T00:37:20.764Z,100040.66
2022-08-27T00:40:23.231Z,100038.91
2022-08-27T00:43:27.538Z,100038.31
2022-08-27T00:46:34.884Z,100033.88
2022-08-27T00:49:36.304Z,100034.28
2022-08-27T00:52:57.463Z,100020.81
2022-08-27T00:56:07.010Z,100029.50
2022-08-27T00:59:08.516Z,100017.88
2022-08-27T01:02:19.487Z,100023.88
2022-08-27T01:05:25.352Z,100019.91
2022-08-27T01:08:29.252Z,100017.56
2022-08-27T01:11:31.777Z,100019.78
2022-08-27T01:14:34.165Z,100023.56
2022-08-27T01:17:38.952Z,100019.91
2022-08-27T01:20:58.472Z,100019.44
2022-08-27T01:24:25.762Z,100013.13
2022-08-27T01:27:31.256Z,100015.91
2022-08-27T01:30:32.898Z,100011.34
2022-08-27T01:33:34.910Z,100013.03
2022-08-27T01:36:36.964Z,100009.44
2022-08-27T01:39:42.042Z,100017.03
2022-08-27T01:42:47.423Z,100015.22
2022-08-27T01:45:51.035Z,100012.97
2022-08-27T01:48:53.199Z,100020.91
2022-08-27T01:51:54.929Z,100022.56
2022-08-27T01:54:56.775Z,100021.91
2022-08-27T01:57:58.270Z,100019.31
2022-08-27T02:01:08.088Z,100018.59
2022-08-27T02:04:09.686Z,100015.22
2022-08-27T02:07:11.801Z,100018.91
2022-08-27T02:10:17.439Z,100010.53
2022-08-27T02:13:19.181Z,100009.09
2022-08-27T02:16:22.126Z,100003.16
2022-08-27T02:19:23.978Z,100005.41
2022-08-27T02:22:25.876Z,100005.09
2022-08-27T02:25:29.886Z,100002.25
2022-08-27T02:28:31.437Z,99994.00
2022-08-27T02:31:33.235Z,100001.72
2022-08-27T02:34:34.984Z,100004.97
2022-08-27T02:37:37.918Z,100007.69
2022-08-27T02:40:39.893Z,100008.97
2022-08-27T02:43:41.447Z,100009.94
2022-08-27T02:46:43.420Z,100016.84
2022-08-27T02:49:44.926Z,100015.00
2022-08-27T02:52:46.605Z,100015.31
2022-08-27T02:55:49.092Z,100016.84
2022-08-27T02:58:50.547Z,100016.06
2022-08-27T03:01:52.140Z,100015.22
2022-08-27T03:04:54.155Z,100010.38
2022-08-27T03:07:55.631Z,100010.38
2022-08-27T03:10:57.164Z,100014.25
2022-08-27T03:14:01.456Z,100006.34
2022-08-27T03:17:21.889Z,100010.16
2022-08-27T03:20:23.820Z,100004.09
2022-08-27T03:23:27.365Z,100003.91
2022-08-27T03:26:30.497Z,100001.72
2022-08-27T03:29:31.967Z,100004.75
2022-08-27T03:32:37.233Z,100005.66
2022-08-27T03:35:38.815Z,100008.47
2022-08-27T03:38:40.282Z,100009.72
2022-08-27T03:41:54.167Z,100025.13
2022-08-27T03:44:56.525Z,100006.03
2022-08-27T03:47:57.918Z,100011.06
2022-08-27T03:51:05.049Z,100022.47
2022-08-27T03:54:07.004Z,100014.31
2022-08-27T03:57:08.640Z,100017.25
2022-08-27T04:00:12.685Z,100025.81
2022-08-27T04:03:14.406Z,100022.69
2022-08-27T04:06:15.908Z,100029.56
2022-08-27T04:09:17.908Z,100023.47
2022-08-27T04:12:19.531Z,100020.78
2022-08-27T04:15:21.430Z,100026.25
2022-08-27T04:18:23.155Z,100025.88
2022-08-27T04:21:24.553Z,100024.34
2022-08-27T04:24:25.992Z,100025.25
2022-08-27T04:27:28.142Z,100026.31
2022-08-27T04:30:29.657Z,100028.81
2022-08-27T04:33:32.342Z,100031.59
2022-08-27T04:36:33.812Z,100027.88
2022-08-27T04:39:35.456Z,100027.53
2022-08-27T04:42:36.955Z,100026.81
2022-08-27T04:45:46.210Z,100041.28
2022-08-27T04:48:47.718Z,100044.78
2022-08-27T04:51:51.107Z,100038.81
2022-08-27T04:54:52.739Z,100044.84
2022-08-27T04:57:54.140Z,100038.16
2022-08-27T05:01:01.386Z,100045.84
2022-08-27T05:04:03.288Z,100044.31
2022-08-27T05:07:05.045Z,100048.03
2022-08-27T05:10:06.978Z,100042.16
2022-08-27T05:13:08.771Z,100046.81
2022-08-27T05:16:13.418Z,100050.56
2022-08-27T05:19:15.288Z,100057.28
2022-08-27T05:22:16.803Z,100048.03
2022-08-27T05:25:18.396Z,100058.88
2022-08-27T05:28:21.542Z,100061.38
2022-08-27T05:31:30.271Z,100069.19
2022-08-27T05:34:31.822Z,100063.63
2022-08-27T05:37:34.154Z,100055.84
2022-08-27T05:40:36.258Z,100056.41
2022-08-27T05:43:40.149Z,100059.34
2022-08-27T05:46:41.627Z,100064.16
2022-08-27T05:49:43.112Z,100053.53
2022-08-27T05:52:44.514Z,100053.72
2022-08-27T05:55:45.952Z,100055.84
2022-08-27T05:59:07.719Z,100057.25
2022-08-27T06:02:10.998Z,100058.72
2022-08-27T06:05:12.531Z,100054.44
2022-08-27T06:08:13.981Z,100045.25
2022-08-27T06:11:15.654Z,100058.72
2022-08-27T06:14:18.173Z,100062.66
2022-08-27T06:17:19.691Z,100059.28
2022-08-27T06:20:21.183Z,100057.47
2022-08-27T06:23:28.262Z,100061.75
2022-08-27T06:26:30.073Z,100050.94
2022-08-27T06:29:31.556Z,100055.13
2022-08-27T06:32:33.075Z,100054.13
2022-08-27T06:35:35.131Z,100056.34
2022-08-27T06:38:37.942Z,100060.28
2022-08-27T06:41:41.088Z,100057.78
2022-08-27T06:44:42.617Z,100062.78
2022-08-27T06:47:44.049Z,100068.56
2022-08-27T06:50:46.275Z,100068.06
2022-08-27T06:53:48.334Z,100072.31
2022-08-27T06:56:50.043Z,100078.06
2022-08-27T06:59:51.754Z,100081.50
2022-08-27T07:02:53.663Z,100083.00
2022-08-27T07:06:05.105Z,100082.56
2022-08-27T07:09:08.482Z,100083.97
2022-08-27T07:12:09.961Z,100079.56
2022-08-27T07:15:11.905Z,100087.91
2022-08-27T07:18:13.418Z,100081.25
2022-08-27T07:21:14.873Z,100095.38
2022-08-27T07:24:16.424Z,100090.22
2022-08-27T07:27:17.926Z,100085.66
2022-08-27T07:30:19.467Z,100089.53
2022-08-27T07:33:21.170Z,100095.50
2022-08-27T07:36:23.724Z,100095.94
2022-08-27T07:39:25.288Z,100102.94
2022-08-27T07:42:45.135Z,100105.50
2022-08-27T07:45:48.686Z,100113.03
2022-08-27T07:48:51.262Z,100113.63
2022-08-27T07:51:52.759Z,100109.31
2022-08-27T07:54:54.380Z,100103.56
2022-08-27T07:57:55.816Z,100099.59
2022-08-27T08:00:57.513Z,100109.72
2022-08-27T08:03:59.003Z,100103.59
2022-08-27T08:07:00.444Z,100111.13
2022-08-27T08:10:02.295Z,100114.03
2022-08-27T08:13:04.719Z,100117.47
2022-08-27T08:16:06.897Z,100119.72
2022-08-27T08:19:09.317Z,100124.09
2022-08-27T08:22:10.833Z,100121.69
2022-08-27T08:25:14.033Z,100124.28
2022-08-27T08:28:15.489Z,100118.00
2022-08-27T08:31:17.103Z,100127.19
2022-08-27T08:34:19.768Z,100117.22
2022-08-27T08:37:21.429Z,100121.59
2022-08-27T08:40:33.798Z,100122.59
2022-08-27T08:43:42.388Z,100119.72
2022-08-27T08:47:03.356Z,100111.81
2022-08-27T08:50:11.247Z,100126.88
2022-08-27T08:53:37.356Z,100127.41
2022-08-27T08:57:04.081Z,100129.84
2022-08-27T09:00:13.317Z,100129.66
2022-08-27T09:03:16.402Z,100130.22
2022-08-27T09:06:32.141Z,100126.63
2022-08-27T09:10:22.057Z,100130.28
2022-08-27T09:13:39.047Z,100127.66
2022-08-27T09:16:40.692Z,100137.69
2022-08-27T09:19:43.074Z,100138.91
2022-08-27T09:23:01.466Z,100134.19
2022-08-27T09:26:03.197Z,100142.63
2022-08-27T09:29:20.073Z,100132.81
2022-08-27T09:32:32.109Z,100135.03
2022-08-27T09:35:42.334Z,100140.75
2022-08-27T09:38:58.342Z,100134.53
2022-08-27T09:42:02.285Z,100132.81
2022-08-27T09:45:15.283Z,100136.91
2022-08-27T09:48:21.344Z,100134.44
2022-08-27T09:51:28.971Z,100143.13
2022-08-27T09:54:46.551Z,100143.47
2022-08-27T09:57:48.068Z,100135.03
2022-08-27T10:01:16.944Z,100133.50
2022-08-27T10:04:27.452Z,100135.88
2022-08-27T10:07:31.801Z,100137.66
2022-08-27T10:10:33.189Z,100134.75
2022-08-27T10:13:51.892Z,100126.66
2022-08-27T10:17:11.698Z,100128.59
2022-08-27T10:20:31.014Z,100114.78
2022-08-27T10:23:55.753Z,100125.22
2022-08-27T10:27:03.285Z,100120.81
2022-08-27T10:30:11.689Z,100115.16
2022-08-27T10:33:27.253Z,100119.66
2022-08-27T10:37:19.833Z,100113.84
2022-08-27T10:40:59.292Z,100115.72
2022-08-27T10:44:24.693Z,100120.72
2022-08-27T10:47:49.562Z,100114.91
2022-08-27T10:51:14.526Z,100115.78
2022-08-27T10:54:35.257Z,100114.88
2022-08-27T10:58:14.657Z,100108.63
2022-08-27T11:01:38.963Z,100112.84
2022-08-27T11:04:49.846Z,100113.09
2022-08-27T11:07:56.269Z,100114.75
2022-08-27T11:12:10.485Z,100110.13
2022-08-27T11:14:55.180Z,100117.28
2022-08-27T11:18:05.591Z,100110.44
2022-08-27T11:21:16.639Z,100112.19
2022-08-27T11:24:34.971Z,100118.81
2022-08-27T11:27:38.529Z,100114.19
2022-08-27T11:30:52.854Z,100119.09
2022-08-27T11:34:10.516Z,100113.38
2022-08-27T11:37:37.417Z,100112.28
2022-08-27T11:40:56.301Z,100108.28
2022-08-27T11:43:59.841Z,100114.03
2022-08-27T11:47:15.158Z,100115.09
2022-08-27T11:50:20.330Z,100110.91
2022-08-27T11:53:28.987Z,100113.63
2022-08-27T11:56:30.413Z,100114.38
2022-08-27T11:59:34.079Z,100109.31
2022-08-27T12:02:35.568Z,100104.13
2022-08-27T12:05:45.029Z,100108.53
2022-08-27T12:08:46.873Z,100109.81
2022-08-27T12:12:00.818Z,100104.94
2022-08-27T12:15:33.076Z,100095.75
2022-08-27T12:18:53.934Z,100089.56
2022-08-27T12:22:04.558Z,100086.88
2022-08-27T12:25:07.761Z,100093.47
2022-08-27T12:28:10.257Z,100086.72
2022-08-27T12:31:21.498Z,100089.75
2022-08-27T12:34:26.020Z,100080.75
2022-08-27T12:37:30.879Z,100074.94
2022-08-27T12:40:39.463Z,100076.97
2022-08-27T12:43:43.924Z,100078.97
2022-08-27T12:46:47.335Z,100081.94
2022-08-27T12:49:59.129Z,100078.72
2022-08-27T12:53:23.725Z,100074.28
2022-08-27T12:56:36.979Z,100074.59
2022-08-27T12:59:44.071Z,100070.41
2022-08-27T13:03:23.080Z,100060.25
2022-08-27T13:06:43.890Z,100061.63
2022-08-27T13:09:45.377Z,100060.16
2022-08-27T13:12:48.548Z,100057.69
2022-08-27T13:15:53.039Z,100063.50
2022-08-27T13:18:54.733Z,100062.00
2022-08-27T13:21:56.751Z,100060.16
2022-08-27T13:25:02.772Z,100048.72
2022-08-27T13:28:12.659Z,100056.09
2022-08-27T13:31:14.758Z,100054.44
2022-08-27T13:34:21.982Z,100051.66
2022-08-27T13:37:28.223Z,100055.16
2022-08-27T13:40:36.793Z,100050.09
2022-08-27T13:43:42.985Z,100047.78
2022-08-27T13:46:48.760Z,100051.50
2022-08-27T13:49:51.826Z,100052.66
2022-08-27T13:53:20.444Z,100049.72
2022-08-27T13:56:34.883Z,100045.19
2022-08-27T13:59:43.096Z,100051.63
2022-08-27T14:02:54.107Z,100044.97
2022-08-27T14:05:59.310Z,100040.69
2022-08-27T14:09:30.457Z,100043.28
2022-08-27T14:12:35.385Z,100043.03
2022-08-27T14:15:39.656Z,100043.38
2022-08-27T14:18:59.823Z,100044.84
2022-08-27T14:22:01.656Z,100050.25
2022-08-27T14:25:04.082Z,100041.34
2022-08-27T14:28:05.637Z,100046.91
2022-08-27T14:31:07.204Z,100040.97
2022-08-27T14:34:08.735Z,100045.75
2022-08-27T14:37:10.520Z,100041.56
2022-08-27T14:40:13.519Z,100045.31
2022-08-27T14:43:15.821Z,100044.88
2022-08-27T14:46:25.368Z,100043.50
2022-08-27T14:49:34.825Z,100036.50
2022-08-27T14:52:36.562Z,100038.16
2022-08-27T14:55:38.089Z,100048.78
2022-08-27T14:58:39.865Z,100048.44
2022-08-27T15:01:41.639Z,100050.69
2022-08-27T15:04:44.337Z,100041.56
2022-08-27T15:07:49.434Z,100044.47
2022-08-27T15:10:51.226Z,100053.88
2022-08-27T15:13:54.091Z,100058.88
2022-08-27T15:16:55.945Z,100055.28
2022-08-27T15:19:57.616Z,100052.47
2022-08-27T15:22:59.210Z,100042.31
2022-08-27T15:26:00.687Z,100043.84
2022-08-27T15:29:06.360Z,100052.59
2022-08-27T15:32:12.807Z,100043.31
2022-08-27T15:35:17.410Z,100046.91
2022-08-27T15:38:18.878Z,100045.38
2022-08-27T15:41:20.965Z,100041.81
2022-08-27T15:44:22.384Z,100048.47
2022-08-27T15:47:24.870Z,100037.38
2022-08-27T15:50:28.665Z,100042.69
2022-08-27T15:53:30.370Z,100036.47
2022-08-27T15:56:34.557Z,100029.94
2022-08-27T15:59:36.465Z,100031.44
2022-08-27T16:02:40.233Z,100035.47
2022-08-27T16:05:44.212Z,100032.78
2022-08-27T16:08:45.680Z,100030.56
2022-08-27T16:11:47.157Z,100034.38
2022-08-27T16:14:48.998Z,100038.31
2022-08-27T16:17:54.911Z,100037.06
2022-08-27T16:20:58.460Z,100032.66
2022-08-27T16:24:00.282Z,100041.84
2022-08-27T16:27:01.737Z,100030.72
2022-08-27T16:30:05.558Z,100039.56
2022-08-27T16:33:08.044Z,100040.03
2022-08-27T16:36:10.374Z,100038.22
2022-08-27T16:39:11.805Z,100036.31
2022-08-27T16:42:13.321Z,100037.94
2022-08-27T16:45:17.724Z,100035.41
2022-08-27T16:48:38.420Z,100039.59
2022-08-27T16:51:40.065Z,100040.69
2022-08-27T16:54:41.686Z,100048.88
2022-08-27T16:57:43.357Z,100051.19
2022-08-27T17:00:47.082Z,100047.94
2022-08-27T17:04:17.321Z,100060.63
2022-08-27T17:07:16.393Z,100061.44
2022-08-27T17:10:18.586Z,100072.31
2022-08-27T17:13:28.176Z,100070.69
2022-08-27T17:16:31.889Z,100078.75
2022-08-27T17:19:34.734Z,100076.94
2022-08-27T17:22:36.401Z,100085.63
2022-08-27T17:25:37.867Z,100077.75
2022-08-27T17:28:40.823Z,100072.94
2022-08-27T17:31:43.677Z,100072.50
2022-08-27T17:34:45.165Z,100075.53
2022-08-27T17:37:46.663Z,100073.44
2022-08-27T17:40:52.202Z,100077.81
2022-08-27T17:43:57.703Z,100079.16
2022-08-27T17:47:02.879Z,100076.00
2022-08-27T17:50:05.085Z,100081.88
2022-08-27T17:53:07.939Z,100084.22
2022-08-27T17:56:09.413Z,100075.00
2022-08-27T17:59:10.866Z,100079.72
2022-08-27T18:02:23.393Z,100075.84
2022-08-27T18:05:25.853Z,100078.03
2022-08-27T18:08:27.387Z,100076.06
2022-08-27T18:11:28.859Z,100082.91
2022-08-27T18:14:30.468Z,100083.81
2022-08-27T18:17:33.230Z,100087.28
2022-08-27T18:20:36.068Z,100089.84
2022-08-27T18:23:38.272Z,100096.00
2022-08-27T18:26:39.865Z,100095.69
2022-08-27T18:29:42.210Z,100099.00
2022-08-27T18:32:43.932Z,100106.69
2022-08-27T18:35:45.651Z,100114.66
2022-08-27T18:38:47.566Z,100116.44
2022-08-27T18:41:49.269Z,100120.69
2022-08-27T18:44:50.750Z,100119.72
2022-08-27T18:47:54.059Z,100127.59
2022-08-27T18:50:58.599Z,100127.03
2022-08-27T18:54:00.152Z,100138.72
2022-08-27T18:57:01.620Z,100136.72
2022-08-27T19:00:06.014Z,100146.34
2022-08-27T19:03:08.928Z,100152.75
2022-08-27T19:06:11.559Z,100154.44
2022-08-27T19:09:15.223Z,100153.53
2022-08-27T19:12:17.599Z,100156.94
2022-08-27T19:15:19.524Z,100158.13
2022-08-27T19:18:24.517Z,100166.94
2022-08-27T19:21:25.999Z,100159.38
2022-08-27T19:24:27.587Z,100161.44
2022-08-27T19:27:30.277Z,100162.00
2022-08-27T19:30:31.806Z,100162.31
2022-08-27T19:33:34.811Z,100161.25
2022-08-27T19:36:40.632Z,100166.41
2022-08-27T19:39:43.310Z,100174.16
2022-08-27T19:42:44.816Z,100181.38
2022-08-27T19:45:46.914Z,100174.22
2022-08-27T19:48:48.594Z,100175.88
2022-08-27T19:51:50.105Z,100178.34
2022-08-27T19:55:12.713Z,100176.94
2022-08-27T19:58:14.851Z,100181.28
2022-08-27T20:01:16.637Z,100182.66
2022-08-27T20:04:19.004Z,100186.06
2022-08-27T20:07:21.805Z,100183.97
2022-08-27T20:10:31.792Z,100182.13
2022-08-27T20:13:38.539Z,100179.41
2022-08-27T20:16:51.959Z,100175.28
2022-08-27T20:19:53.435Z,100187.84
2022-08-27T20:22:55.802Z,100182.25
2022-08-27T20:26:01.223Z,100184.59
2022-08-27T20:29:03.885Z,100192.78
2022-08-27T20:32:05.351Z,100190.03
2022-08-27T20:35:10.536Z,100200.41
2022-08-27T20:38:12.163Z,100203.34
2022-08-27T20:41:14.236Z,100204.75
2022-08-27T20:44:16.985Z,100210.28
2022-08-27T20:47:19.496Z,100213.50
2022-08-27T20:50:22.059Z,100215.16
2022-08-27T20:53:23.627Z,100217.13
2022-08-27T20:56:25.086Z,100222.06
2022-08-27T20:59:45.093Z,100213.25
2022-08-27T21:02:46.705Z,100222.78
2022-08-27T21:05:48.606Z,100224.56
2022-08-27T21:08:50.850Z,100228.25
2022-08-27T21:11:56.112Z,100219.13
2022-08-27T21:14:58.844Z,100224.19
2022-08-27T21:18:00.312Z,100216.88
2022-08-27T21:21:04.467Z,100215.25
2022-08-27T21:24:05.916Z,100230.25
2022-08-27T21:27:07.385Z,100229.13
2022-08-27T21:30:10.951Z,100232.63
2022-08-27T21:33:12.457Z,100228.69
2022-08-27T21:36:13.965Z,100234.53
2022-08-27T21:39:15.429Z,100230.31
2022-08-27T21:42:17.075Z,100237.56
2022-08-27T21:45:19.938Z,100232.94
2022-08-27T21:48:21.913Z,100237.72
2022-08-27T21:51:24.710Z,100234.19
2022-08-27T21:54:26.584Z,100234.41
2022-08-27T21:57:29.645Z,100232.75
2022-08-27T22:00:50.466Z,100245.09
2022-08-27T22:03:52.355Z,100241.78
2022-08-27T22:06:54.825Z,100245.44
2022-08-27T22:09:56.450Z,100244.81
2022-08-27T22:12:59.105Z,100243.13
2022-08-27T22:16:02.745Z,100240.50
2022-08-27T22:19:04.435Z,100237.53
2022-08-27T22:22:05.839Z,100236.69
2022-08-27T22:25:08.530Z,100236.94
2022-08-27T22:28:10.554Z,100240.69
2022-08-27T22:31:12.340Z,100231.53
2022-08-27T22:34:15.062Z,100230.47
2022-08-27T22:37:17.318Z,100218.09
2022-08-27T22:40:21.942Z,100225.97
2022-08-27T22:43:23.589Z,100229.41
2022-08-27T22:46:25.144Z,100226.44
2022-08-27T22:49:26.786Z,100224.81
2022-08-27T22:52:28.447Z,100239.22
2022-08-27T22:55:30.026Z,100236.00
2022-08-27T22:58:31.548Z,100240.09
2022-08-27T23:01:33.378Z,100240.00
2022-08-27T23:04:54.067Z,100231.78
2022-08-27T23:07:57.058Z,100235.47
2022-08-27T23:10:58.597Z,100234.72
2022-08-27T23:14:00.178Z,100249.09
2022-08-27T23:17:01.659Z,100240.81
2022-08-27T23:20:06.310Z,100240.94
2022-08-27T23:23:09.994Z,100227.53
2022-08-27T23:26:30.616Z,100236.97
2022-08-27T23:29:32.098Z,100228.59
2022-08-27T23:32:33.583Z,100230.47
2022-08-27T23:35:35.281Z,100227.25
2022-08-27T23:38:36.812Z,100234.50
2022-08-27T23:41:38.285Z,100230.75
2022-08-27T23:44:39.879Z,100230.69
2022-08-27T23:47:41.417Z,100226.31
2022-08-27T23:50:44.286Z,100228.41
2022-08-27T23:53:45.866Z,100220.59
2022-08-27T23:56:47.984Z,100227.31
2022-08-27T23:59:49.454Z,100234.50
